createdAt,value
2018-09-10T00:02:22.352Z,16.10
2018-09-10T00:04:50.787Z,16.10
2018-09-10T00:07:19.198Z,16.10
2018-09-10T00:09:47.592Z,16.10
2018-09-10T00:12:15.990Z,16.00
2018-09-10T00:14:44.368Z,16.00
2018-09-10T00:17:12.756Z,15.90
2018-09-10T00:19:41.140Z,15.80
2018-09-10T00:22:09.532Z,15.80
2018-09-10T00:24:37.946Z,15.80
2018-09-10T00:27:06.365Z,15.70
2018-09-10T00:29:34.780Z,15.70
2018-09-10T00:32:03.182Z,15.60
2018-09-10T00:34:31.589Z,15.50
2018-09-10T00:37:00.013Z,15.50
2018-09-10T00:39:28.399Z,15.40
2018-09-10T00:41:56.872Z,15.40
2018-09-10T00:44:25.252Z,15.40
2018-09-10T00:46:53.644Z,15.40
2018-09-10T00:49:22.033Z,15.40
2018-09-10T00:51:50.960Z,15.30
2018-09-10T00:54:19.348Z,15.30
2018-09-10T00:56:47.752Z,15.30
2018-09-10T00:59:16.187Z,15.30
2018-09-10T01:01:44.635Z,15.30
2018-09-10T01:04:13.044Z,15.30
2018-09-10T01:06:41.429Z,15.30
2018-09-10T01:09:10.856Z,15.30
2018-09-10T01:11:39.938Z,15.20
2018-09-10T01:14:08.944Z,15.10
2018-09-10T01:16:37.356Z,14.90
2018-09-10T01:19:05.790Z,14.80
2018-09-10T01:21:34.181Z,14.70
2018-09-10T01:24:02.580Z,14.60
2018-09-10T01:26:30.971Z,14.40
2018-09-10T01:28:59.402Z,14.30
2018-09-10T01:31:27.876Z,14.30
2018-09-10T01:34:01.681Z,14.20
2018-09-10T01:36:30.058Z,14.00
2018-09-10T01:38:58.448Z,13.90
2018-09-10T01:41:26.857Z,13.80
2018-09-10T01:43:55.281Z,13.70
2018-09-10T01:46:23.893Z,13.70
2018-09-10T01:48:52.301Z,13.70
2018-09-10T01:51:20.676Z,13.60
2018-09-10T01:53:49.068Z,13.70
2018-09-10T01:56:17.491Z,13.80
2018-09-10T01:58:45.879Z,13.80
2018-09-10T02:01:14.309Z,13.90
2018-09-10T02:03:42.721Z,13.90
2018-09-10T02:06:11.152Z,13.90
2018-09-10T02:08:39.560Z,13.90
2018-09-10T02:11:07.996Z,13.80
2018-09-10T02:13:36.400Z,13.80
2018-09-10T02:16:04.937Z,14.00
2018-09-10T02:18:33.397Z,14.00
2018-09-10T02:21:01.809Z,14.00
2018-09-10T02:23:30.222Z,13.90
2018-09-10T02:25:58.630Z,13.90
2018-09-10T02:28:27.011Z,14.00
2018-09-10T02:30:55.452Z,14.00
2018-09-10T02:33:23.845Z,14.00
2018-09-10T02:35:52.252Z,14.00
2018-09-10T02:38:20.650Z,14.00
2018-09-10T02:40:49.052Z,14.10
2018-09-10T02:43:17.476Z,14.00
2018-09-10T02:45:45.880Z,14.00
2018-09-10T02:48:14.278Z,14.00
2018-09-10T02:50:42.686Z,13.90
2018-09-10T02:53:11.078Z,13.90
2018-09-10T02:55:39.599Z,14.00
2018-09-10T02:58:08.000Z,14.10
2018-09-10T03:00:36.426Z,14.30
2018-09-10T03:03:05.134Z,14.40
2018-09-10T03:05:33.829Z,14.50
2018-09-10T03:08:02.224Z,14.60
2018-09-10T03:10:30.612Z,14.70
2018-09-10T03:12:59.001Z,14.80
2018-09-10T03:15:28.241Z,15.00
2018-09-10T03:17:56.723Z,15.00
2018-09-10T03:20:25.083Z,15.00
2018-09-10T03:22:53.528Z,15.00
2018-09-10T03:25:21.911Z,15.00
2018-09-10T03:27:50.311Z,14.90
2018-09-10T03:30:18.685Z,14.90
2018-09-10T03:32:47.090Z,14.90
2018-09-10T03:35:15.496Z,14.90
2018-09-10T03:37:43.976Z,14.90
2018-09-10T03:40:12.376Z,15.00
2018-09-10T03:42:40.841Z,15.10
2018-09-10T03:45:09.248Z,15.20
2018-09-10T03:47:37.701Z,15.20
2018-09-10T03:50:06.141Z,15.20
2018-09-10T03:52:34.553Z,15.20
2018-09-10T03:55:02.950Z,15.20
2018-09-10T03:57:31.336Z,15.20
2018-09-10T03:59:59.725Z,15.20
2018-09-10T04:02:28.109Z,15.20
2018-09-10T04:04:56.541Z,15.20
2018-09-10T04:07:24.941Z,15.20
2018-09-10T04:09:53.458Z,15.30
2018-09-10T04:12:21.854Z,15.30
2018-09-10T04:14:50.278Z,15.30
2018-09-10T04:17:18.726Z,15.20
2018-09-10T04:19:47.090Z,15.20
2018-09-10T04:22:15.489Z,15.20
2018-09-10T04:24:43.963Z,15.20
2018-09-10T04:27:12.369Z,15.10
2018-09-10T04:29:40.753Z,15.00
2018-09-10T04:32:09.160Z,15.00
2018-09-10T04:34:37.598Z,15.00
2018-09-10T04:37:05.979Z,15.00
2018-09-10T04:39:34.420Z,15.00
2018-09-10T04:42:02.916Z,15.00
2018-09-10T04:44:31.312Z,14.90
2018-09-10T04:46:59.720Z,14.90
2018-09-10T04:49:28.109Z,14.90
2018-09-10T04:51:56.496Z,14.90
2018-09-10T04:54:24.906Z,14.90
2018-09-10T04:56:53.321Z,14.90
2018-09-10T04:59:21.723Z,15.00
2018-09-10T05:01:50.096Z,15.10
2018-09-10T05:04:19.547Z,15.10
2018-09-10T05:06:48.992Z,15.30
2018-09-10T05:09:17.532Z,15.30
2018-09-10T05:11:46.352Z,15.30
2018-09-10T05:14:14.736Z,15.30
2018-09-10T05:16:43.152Z,15.30
2018-09-10T05:19:11.528Z,15.40
2018-09-10T05:21:39.938Z,15.40
2018-09-10T05:24:08.399Z,15.30
2018-09-10T05:26:36.819Z,15.30
2018-09-10T05:29:05.312Z,15.40
2018-09-10T05:31:33.749Z,15.40
2018-09-10T05:34:03.386Z,15.50
2018-09-10T05:36:31.804Z,15.50
2018-09-10T05:39:00.617Z,15.60
2018-09-10T05:41:29.065Z,15.60
2018-09-10T05:43:57.413Z,15.70
2018-09-10T05:46:25.840Z,15.70
2018-09-10T05:48:54.233Z,15.70
2018-09-10T05:51:22.732Z,15.70
2018-09-10T05:53:51.116Z,15.70
2018-09-10T05:56:19.540Z,15.70
2018-09-10T05:58:47.927Z,15.70
2018-09-10T06:01:16.348Z,15.80
2018-09-10T06:03:44.764Z,15.80
2018-09-10T06:06:13.191Z,15.80
2018-09-10T06:08:41.598Z,15.90
2018-09-10T06:11:10.003Z,16.00
2018-09-10T06:13:38.441Z,16.00
2018-09-10T06:16:06.856Z,16.00
2018-09-10T06:18:35.282Z,16.00
2018-09-10T06:21:03.741Z,16.10
2018-09-10T06:23:32.179Z,16.00
2018-09-10T06:26:00.657Z,15.90
2018-09-10T06:28:29.093Z,15.90
2018-09-10T06:30:57.497Z,15.90
2018-09-10T06:33:25.920Z,16.00
2018-09-10T06:35:54.334Z,16.00
2018-09-10T06:38:22.829Z,16.00
2018-09-10T06:40:51.223Z,16.10
2018-09-10T06:43:19.653Z,16.20
2018-09-10T06:45:48.061Z,16.20
2018-09-10T06:48:16.636Z,16.20
2018-09-10T06:50:45.056Z,16.20
2018-09-10T06:53:13.463Z,16.30
2018-09-10T06:55:41.858Z,16.40
2018-09-10T06:58:10.318Z,16.50
2018-09-10T07:00:38.745Z,16.60
2018-09-10T07:03:06.958Z,16.60
2018-09-10T07:05:35.403Z,16.80
2018-09-10T07:08:04.029Z,16.80
2018-09-10T07:10:32.456Z,16.90
2018-09-10T07:13:00.934Z,16.90
2018-09-10T07:15:29.312Z,16.90
2018-09-10T07:17:57.705Z,17.10
2018-09-10T07:20:26.153Z,17.20
2018-09-10T07:22:54.568Z,17.40
2018-09-10T07:25:22.974Z,17.60
2018-09-10T07:27:51.398Z,17.80
2018-09-10T07:30:19.877Z,17.90
2018-09-10T07:32:48.368Z,18.10
2018-09-10T07:35:16.777Z,17.90
2018-09-10T07:37:45.242Z,17.90
2018-09-10T07:40:13.661Z,18.00
2018-09-10T07:42:42.068Z,18.20
2018-09-10T07:45:10.484Z,18.10
2018-09-10T07:47:38.864Z,18.10
2018-09-10T07:50:07.334Z,18.00
2018-09-10T07:52:35.728Z,18.00
2018-09-10T07:55:04.172Z,18.00
2018-09-10T07:57:32.580Z,18.10
2018-09-10T08:00:01.460Z,18.20
2018-09-10T08:02:30.064Z,18.30
2018-09-10T08:04:58.468Z,18.40
2018-09-10T08:07:26.915Z,18.40
2018-09-10T08:09:55.312Z,18.50
2018-09-10T08:12:23.832Z,18.70
2018-09-10T08:14:52.212Z,18.80
2018-09-10T08:17:20.671Z,18.90
2018-09-10T08:19:49.070Z,18.90
2018-09-10T08:22:17.528Z,19.10
2018-09-10T08:24:45.909Z,19.50
2018-09-10T08:27:14.721Z,19.60
2018-09-10T08:29:43.196Z,19.30
2018-09-10T08:32:11.751Z,19.10
2018-09-10T08:34:40.133Z,19.20
2018-09-10T08:37:08.543Z,19.30
2018-09-10T08:39:36.937Z,19.60
2018-09-10T08:42:05.521Z,19.80
2018-09-10T08:44:33.948Z,19.80
2018-09-10T08:47:02.362Z,19.90
2018-09-10T08:49:30.780Z,19.80
2018-09-10T08:51:59.263Z,19.80
2018-09-10T08:54:27.723Z,19.60
2018-09-10T08:56:56.095Z,19.60
2018-09-10T08:59:24.482Z,19.80
2018-09-10T09:01:52.939Z,20.00
2018-09-10T09:04:21.412Z,20.00
2018-09-10T09:06:49.999Z,20.20
2018-09-10T09:09:18.408Z,20.30
2018-09-10T09:11:46.842Z,20.30
2018-09-10T09:14:15.256Z,20.10
2018-09-10T09:16:43.648Z,20.20
2018-09-10T09:19:12.068Z,20.40
2018-09-10T09:21:40.465Z,20.70
2018-09-10T09:24:08.898Z,20.90
2018-09-10T09:26:37.334Z,21.40
2018-09-10T09:29:06.019Z,21.40
2018-09-10T09:31:34.421Z,21.80
2018-09-10T09:34:02.831Z,21.80
2018-09-10T09:36:36.654Z,21.40
2018-09-10T09:39:12.204Z,21.60
2018-09-10T09:41:46.029Z,21.60
2018-09-10T09:44:19.784Z,21.80
2018-09-10T09:46:48.190Z,22.50
2018-09-10T09:49:16.608Z,22.90
2018-09-10T09:51:45.042Z,23.30
2018-09-10T09:54:13.445Z,23.00
2018-09-10T09:56:41.856Z,22.80
2018-09-10T09:59:10.296Z,23.00
2018-09-10T10:01:44.761Z,22.80
2018-09-10T10:04:13.684Z,23.00
2018-09-10T10:06:42.038Z,23.30
2018-09-10T10:09:11.707Z,23.60
2018-09-10T10:11:40.651Z,23.50
2018-09-10T10:14:09.772Z,24.20
2018-09-10T10:16:38.375Z,24.80
2018-09-10T10:19:06.947Z,24.80
2018-09-10T10:21:35.643Z,25.00
2018-09-10T10:24:04.069Z,25.20
2018-09-10T10:26:32.486Z,25.00
2018-09-10T10:29:00.882Z,24.70
2018-09-10T10:31:29.405Z,24.40
2018-09-10T10:33:57.802Z,23.80
2018-09-10T10:36:26.320Z,22.90
2018-09-10T10:38:54.731Z,22.20
2018-09-10T10:41:23.149Z,22.00
2018-09-10T10:43:51.542Z,22.30
2018-09-10T10:46:19.957Z,22.90
2018-09-10T10:48:48.344Z,23.20
2018-09-10T10:51:16.781Z,23.70
2018-09-10T10:53:45.289Z,24.50
2018-09-10T10:56:13.656Z,24.60
2018-09-10T10:58:42.048Z,24.80
2018-09-10T11:01:10.440Z,24.30
2018-09-10T11:03:38.992Z,24.00
2018-09-10T11:06:07.617Z,23.00
2018-09-10T11:08:36.049Z,22.90
2018-09-10T11:11:04.500Z,23.10
2018-09-10T11:13:32.961Z,23.30
2018-09-10T11:16:01.356Z,23.30
2018-09-10T11:18:29.864Z,23.50
2018-09-10T11:20:58.257Z,23.80
2018-09-10T11:23:26.665Z,23.10
2018-09-10T11:25:55.061Z,23.00
2018-09-10T11:28:24.011Z,23.20
2018-09-10T11:30:52.450Z,23.30
2018-09-10T11:33:20.890Z,23.60
2018-09-10T11:35:49.269Z,24.00
2018-09-10T11:38:17.680Z,24.30
2018-09-10T11:40:46.066Z,24.10
2018-09-10T11:43:14.480Z,24.40
2018-09-10T11:45:43.220Z,24.70
2018-09-10T11:48:11.648Z,24.40
2018-09-10T11:50:40.062Z,24.80
2018-09-10T11:53:08.485Z,24.50
2018-09-10T11:55:36.925Z,23.40
2018-09-10T11:58:05.469Z,23.00
2018-09-10T12:00:33.909Z,22.60
2018-09-10T12:03:02.412Z,22.90
2018-09-10T12:05:30.807Z,23.00
2018-09-10T12:07:59.188Z,23.00
2018-09-10T12:10:27.599Z,22.60
2018-09-10T12:12:56.013Z,22.80
2018-09-10T12:15:24.451Z,22.80
2018-09-10T12:17:52.873Z,22.80
2018-09-10T12:20:21.272Z,22.50
2018-09-10T12:22:49.678Z,22.50
2018-09-10T12:25:18.090Z,22.30
2018-09-10T12:27:46.473Z,22.60
2018-09-10T12:30:14.896Z,22.90
2018-09-10T12:32:43.276Z,23.00
2018-09-10T12:35:11.676Z,23.00
2018-09-10T12:37:40.202Z,23.00
2018-09-10T12:40:08.640Z,23.00
2018-09-10T12:42:37.057Z,22.90
2018-09-10T12:45:05.793Z,23.00
2018-09-10T12:47:34.208Z,22.70
2018-09-10T12:50:02.654Z,22.30
2018-09-10T12:52:31.044Z,22.10
2018-09-10T12:54:59.464Z,22.20
2018-09-10T12:57:27.892Z,22.10
2018-09-10T12:59:56.398Z,22.00
2018-09-10T13:02:24.856Z,22.00
2018-09-10T13:04:53.428Z,22.00
2018-09-10T13:07:21.833Z,22.20
2018-09-10T13:09:50.355Z,22.30
2018-09-10T13:12:18.774Z,22.40
2018-09-10T13:14:47.157Z,22.50
2018-09-10T13:17:15.601Z,22.90
2018-09-10T13:19:44.040Z,23.20
2018-09-10T13:22:13.640Z,23.50
2018-09-10T13:24:43.323Z,23.50
2018-09-10T13:27:11.742Z,23.40
2018-09-10T13:29:40.229Z,23.40
2018-09-10T13:32:08.629Z,22.90
2018-09-10T13:34:37.069Z,23.00
2018-09-10T13:37:05.561Z,23.20
2018-09-10T13:39:33.944Z,23.30
2018-09-10T13:42:02.589Z,23.50
2018-09-10T13:44:31.052Z,23.50
2018-09-10T13:46:59.496Z,23.30
2018-09-10T13:49:27.950Z,23.20
2018-09-10T13:51:56.692Z,22.90
2018-09-10T13:54:25.213Z,22.80
2018-09-10T13:56:53.713Z,22.60
2018-09-10T13:59:22.131Z,22.60
2018-09-10T14:01:50.557Z,22.50
2018-09-10T14:04:19.068Z,22.40
2018-09-10T14:06:47.492Z,22.40
2018-09-10T14:09:15.915Z,22.50
2018-09-10T14:11:44.400Z,22.30
2018-09-10T14:14:12.846Z,22.30
2018-09-10T14:16:41.233Z,22.30
2018-09-10T14:19:09.644Z,22.50
2018-09-10T14:21:38.212Z,22.60
2018-09-10T14:24:06.789Z,22.50
2018-09-10T14:26:35.218Z,22.50
2018-09-10T14:29:03.637Z,22.60
2018-09-10T14:31:32.304Z,22.80
2018-09-10T14:34:00.733Z,22.90
2018-09-10T14:36:29.110Z,23.00
2018-09-10T14:38:57.553Z,23.20
2018-09-10T14:41:26.049Z,23.40
2018-09-10T14:43:54.570Z,23.20
2018-09-10T14:46:23.526Z,23.30
2018-09-10T14:48:51.966Z,23.20
2018-09-10T14:51:20.520Z,23.10
2018-09-10T14:53:49.138Z,23.20
2018-09-10T14:56:17.724Z,23.00
2018-09-10T14:58:46.141Z,23.00
2018-09-10T15:01:14.584Z,22.90
2018-09-10T15:03:43.869Z,22.90
2018-09-10T15:06:12.609Z,22.60
2018-09-10T15:08:41.227Z,22.60
2018-09-10T15:11:09.658Z,22.50
2018-09-10T15:13:38.392Z,22.60
2018-09-10T15:16:06.835Z,22.60
2018-09-10T15:18:35.413Z,22.70
2018-09-10T15:21:03.807Z,22.70
2018-09-10T15:23:32.252Z,22.50
2018-09-10T15:26:00.858Z,22.60
2018-09-10T15:28:29.703Z,22.60
2018-09-10T15:30:59.011Z,22.50
2018-09-10T15:33:27.490Z,22.40
2018-09-10T15:35:55.928Z,22.50
2018-09-10T15:38:24.308Z,22.40
2018-09-10T15:40:52.728Z,22.50
2018-09-10T15:43:21.357Z,22.50
2018-09-10T15:45:49.864Z,22.50
2018-09-10T15:48:18.244Z,22.50
2018-09-10T15:50:46.691Z,22.30
2018-09-10T15:53:15.142Z,22.30
2018-09-10T15:55:43.517Z,22.20
2018-09-10T15:58:11.939Z,22.20
2018-09-10T16:00:40.384Z,22.10
2018-09-10T16:03:08.788Z,22.10
2018-09-10T16:05:37.745Z,22.10
2018-09-10T16:08:06.190Z,22.00
2018-09-10T16:10:35.230Z,22.00
2018-09-10T16:13:03.669Z,21.90
2018-09-10T16:15:32.512Z,21.90
2018-09-10T16:18:01.061Z,21.90
2018-09-10T16:20:29.477Z,21.90
2018-09-10T16:22:57.984Z,21.80
2018-09-10T16:25:26.386Z,21.80
2018-09-10T16:27:54.797Z,21.80
2018-09-10T16:30:23.239Z,21.70
2018-09-10T16:32:51.689Z,21.70
2018-09-10T16:35:20.150Z,21.60
2018-09-10T16:37:56.897Z,21.60
2018-09-10T16:40:25.685Z,21.60
2018-09-10T16:42:54.120Z,21.60
2018-09-10T16:45:22.705Z,21.50
2018-09-10T16:47:51.230Z,21.50
2018-09-10T16:50:19.694Z,21.40
2018-09-10T16:52:48.132Z,21.40
2018-09-10T16:55:16.647Z,21.40
2018-09-10T16:57:45.191Z,21.40
2018-09-10T17:00:13.629Z,21.20
2018-09-10T17:02:42.457Z,21.20
2018-09-10T17:05:10.907Z,21.10
2018-09-10T17:07:39.485Z,21.00
2018-09-10T17:10:08.015Z,21.00
2018-09-10T17:12:36.490Z,21.00
2018-09-10T17:15:05.201Z,21.00
2018-09-10T17:17:33.656Z,20.90
2018-09-10T17:20:02.151Z,20.80
2018-09-10T17:22:30.678Z,20.70
2018-09-10T17:24:59.026Z,20.70
2018-09-10T17:27:27.462Z,20.60
2018-09-10T17:29:55.949Z,20.60
2018-09-10T17:32:24.399Z,20.50
2018-09-10T17:34:52.867Z,20.40
2018-09-10T17:37:21.289Z,20.30
2018-09-10T17:39:49.729Z,20.20
2018-09-10T17:42:18.370Z,20.00
2018-09-10T17:44:46.826Z,19.90
2018-09-10T17:47:15.385Z,19.90
2018-09-10T17:49:43.754Z,19.90
2018-09-10T17:52:12.188Z,19.90
2018-09-10T17:54:40.853Z,19.80
2018-09-10T17:57:09.403Z,19.80
2018-09-10T17:59:37.813Z,19.90
2018-09-10T18:02:06.481Z,19.80
2018-09-10T18:04:34.950Z,19.80
2018-09-10T18:07:03.481Z,19.70
2018-09-10T18:09:31.905Z,19.60
2018-09-10T18:12:00.441Z,19.60
2018-09-10T18:14:28.881Z,19.60
2018-09-10T18:16:57.402Z,19.60
2018-09-10T18:19:25.837Z,19.50
2018-09-10T18:21:54.288Z,19.50
2018-09-10T18:24:22.751Z,19.50
2018-09-10T18:26:51.192Z,19.60
2018-09-10T18:29:19.621Z,19.50
2018-09-10T18:31:48.077Z,19.50
2018-09-10T18:34:16.582Z,19.50
2018-09-10T18:36:45.011Z,19.40
2018-09-10T18:39:13.426Z,19.20
2018-09-10T18:41:41.913Z,19.00
2018-09-10T18:44:10.392Z,18.80
2018-09-10T18:46:39.108Z,18.70
2018-09-10T18:49:07.811Z,18.60
2018-09-10T18:51:36.271Z,18.50
2018-09-10T18:54:04.740Z,18.50
2018-09-10T18:56:33.213Z,18.40
2018-09-10T18:59:01.653Z,18.40
2018-09-10T19:01:30.160Z,18.40
2018-09-10T19:03:58.592Z,18.30
2018-09-10T19:06:27.025Z,18.10
2018-09-10T19:08:55.447Z,18.00
2018-09-10T19:11:23.919Z,18.10
2018-09-10T19:13:52.360Z,18.10
2018-09-10T19:16:20.953Z,18.20
2018-09-10T19:18:49.395Z,18.20
2018-09-10T19:21:17.817Z,18.30
2018-09-10T19:23:46.313Z,18.30
2018-09-10T19:26:14.762Z,18.30
2018-09-10T19:28:43.207Z,18.40
2018-09-10T19:31:11.747Z,18.30
2018-09-10T19:33:41.237Z,18.30
2018-09-10T19:36:09.748Z,18.30
2018-09-10T19:38:38.213Z,18.30
2018-09-10T19:41:06.715Z,18.30
2018-09-10T19:43:35.172Z,18.30
2018-09-10T19:46:03.598Z,18.20
2018-09-10T19:48:32.056Z,18.10
2018-09-10T19:51:00.488Z,18.00
2018-09-10T19:53:28.962Z,18.00
2018-09-10T19:55:58.125Z,18.10
2018-09-10T19:58:26.590Z,18.10
2018-09-10T20:00:55.024Z,18.00
2018-09-10T20:03:23.478Z,17.90
2018-09-10T20:05:51.880Z,17.80
2018-09-10T20:08:20.309Z,17.80
2018-09-10T20:10:49.598Z,17.80
2018-09-10T20:13:18.055Z,17.90
2018-09-10T20:15:46.573Z,18.00
2018-09-10T20:18:15.024Z,18.00
2018-09-10T20:20:43.567Z,18.10
2018-09-10T20:23:12.020Z,18.20
2018-09-10T20:25:40.465Z,18.10
2018-09-10T20:28:08.910Z,18.00
2018-09-10T20:30:37.374Z,17.90
2018-09-10T20:33:05.799Z,17.90
2018-09-10T20:35:34.209Z,17.90
2018-09-10T20:38:02.676Z,17.80
2018-09-10T20:40:31.109Z,17.80
2018-09-10T20:42:59.568Z,17.70
2018-09-10T20:45:27.997Z,17.60
2018-09-10T20:47:56.571Z,17.60
2018-09-10T20:50:25.008Z,17.60
2018-09-10T20:52:53.389Z,17.60
2018-09-10T20:55:21.788Z,17.40
2018-09-10T20:57:50.213Z,17.30
2018-09-10T21:00:18.649Z,17.40
2018-09-10T21:02:47.055Z,17.30
2018-09-10T21:07:49.548Z,17.20
2018-09-10T21:10:17.985Z,17.10
2018-09-10T21:12:46.476Z,17.00
2018-09-10T21:15:14.964Z,17.00
2018-09-10T21:17:43.353Z,16.90
2018-09-10T21:20:11.873Z,17.00
2018-09-10T21:22:40.294Z,16.90
2018-09-10T21:25:08.780Z,16.70
2018-09-10T21:27:37.199Z,16.60
2018-09-10T21:30:06.623Z,16.50
2018-09-10T21:32:35.046Z,16.50
2018-09-10T21:35:03.462Z,16.40
2018-09-10T21:37:31.857Z,16.30
2018-09-10T21:40:00.252Z,16.20
2018-09-10T21:42:28.689Z,16.20
2018-09-10T21:44:57.084Z,16.10
2018-09-10T21:47:25.500Z,16.10
2018-09-10T21:49:54.113Z,15.90
2018-09-10T21:52:22.560Z,15.80
2018-09-10T21:54:50.973Z,15.80
2018-09-10T21:57:19.385Z,15.80
2018-09-10T21:59:47.772Z,15.80
2018-09-10T22:02:16.193Z,15.90
2018-09-10T22:04:44.688Z,16.00
2018-09-10T22:07:13.151Z,16.00
2018-09-10T22:09:41.544Z,16.00
2018-09-10T22:12:09.964Z,16.00
2018-09-10T22:14:38.494Z,16.00
2018-09-10T22:17:06.994Z,15.90
2018-09-10T22:19:35.416Z,15.90
2018-09-10T22:22:03.833Z,15.90
2018-09-10T22:24:32.248Z,15.90
2018-09-10T22:27:00.620Z,15.90
2018-09-10T22:29:29.025Z,15.90
2018-09-10T22:31:57.405Z,15.80
2018-09-10T22:34:25.852Z,15.80
2018-09-10T22:36:54.268Z,15.80
2018-09-10T22:39:22.715Z,15.70
2018-09-10T22:41:51.113Z,15.70
2018-09-10T22:44:19.563Z,15.70
2018-09-10T22:46:47.933Z,15.60
2018-09-10T22:49:16.359Z,15.60
2018-09-10T22:51:44.766Z,15.60
2018-09-10T22:54:13.187Z,15.50
2018-09-10T22:56:41.573Z,15.50
2018-09-10T22:59:09.970Z,15.50
2018-09-10T23:01:38.365Z,15.40
2018-09-10T23:04:06.786Z,15.20
2018-09-10T23:06:35.196Z,15.30
2018-09-10T23:09:04.837Z,15.30
2018-09-10T23:11:33.233Z,15.20
2018-09-10T23:14:01.667Z,15.20
2018-09-10T23:16:30.075Z,15.20
2018-09-10T23:18:58.457Z,15.20
2018-09-10T23:21:27.088Z,15.20
2018-09-10T23:23:55.481Z,15.20
2018-09-10T23:26:23.912Z,15.10
2018-09-10T23:28:52.317Z,15.10
2018-09-10T23:31:20.717Z,15.10
2018-09-10T23:33:49.137Z,15.10
2018-09-10T23:36:17.572Z,15.20
2018-09-10T23:38:45.989Z,15.20
2018-09-10T23:41:14.387Z,15.20
2018-09-10T23:43:42.782Z,15.20
2018-09-10T23:46:11.277Z,15.20
2018-09-10T23:48:39.680Z,15.20
2018-09-10T23:51:08.112Z,15.20
2018-09-10T23:53:36.536Z,15.20
2018-09-10T23:56:04.965Z,15.20
2018-09-10T23:58:33.368Z,15.30
